Time,TemperatureF,DewpointF,PressureIn,WindDirection,WindDirectionDegrees,WindSpeedMPH,WindSpeedGustMPH,Humidity,HourlyPrecipIn,Conditions,Clouds,dailyrainin,SoftwareType,DateUTC
2013-03-26 00:00:00,36.4,19.0,30.32,NNW,338,0.0,0.4,49,0.00,,,0.00,WUHU216HW,2013-03-26 05:00:00,
2013-03-26 00:01:00,36.4,19.0,30.32,NNW,338,0.0,0.2,49,0.00,,,0.00,WUHU216HW,2013-03-26 05:01:00,
2013-03-26 00:02:00,36.4,19.0,30.32,NNW,338,0.0,0.2,49,0.00,,,0.00,WUHU216HW,2013-03-26 05:02:00,
2013-03-26 00:04:00,36.2,18.9,30.32,NW,315,0.0,0.2,49,0.00,,,0.00,WUHU216HW,2013-03-26 05:04:00,
2013-03-26 00:05:00,36.0,19.3,30.32,NW,315,0.0,0.0,50,0.00,,,0.00,WUHU216HW,2013-03-26 05:05:00,
2013-03-26 00:06:00,36.0,19.3,30.32,NW,315,0.2,0.2,50,0.00,,,0.00,WUHU216HW,2013-03-26 05:06:00,
2013-03-26 00:07:00,36.0,18.7,30.32,NW,315,0.0,0.2,49,0.00,,,0.00,WUHU216HW,2013-03-26 05:07:00,
2013-03-26 00:08:00,35.8,18.5,30.32,NW,315,0.0,0.2,49,0.00,,,0.00,WUHU216HW,2013-03-26 05:08:00,
2013-03-26 00:10:00,35.6,18.9,30.32,West,270,0.0,0.2,50,0.00,,,0.00,WUHU216HW,2013-03-26 05:10:00,
2013-03-26 00:11:00,35.5,18.7,30.32,West,270,0.0,0.2,50,0.00,,,0.00,WUHU216HW,2013-03-26 05:11:00,
2013-03-26 00:12:00,35.5,18.7,30.32,West,270,0.0,0.2,50,0.00,,,0.00,WUHU216HW,2013-03-26 05:12:00,
2013-03-26 00:14:00,35.3,19.5,30.32,West,270,0.0,0.2,52,0.00,,,0.00,WUHU216HW,2013-03-26 05:14:00,
2013-03-26 00:15:00,35.3,19.5,30.32,West,270,0.0,0.2,52,0.00,,,0.00,WUHU216HW,2013-03-26 05:15:00,
2013-03-26 00:16:00,35.1,18.8,30.32,West,270,0.0,0.0,51,0.00,,,0.00,WUHU216HW,2013-03-26 05:16:00,
2013-03-26 00:18:00,34.9,19.1,30.31,West,270,0.0,0.0,52,0.00,,,0.00,WUHU216HW,2013-03-26 05:18:00,
2013-03-26 00:19:00,34.9,19.4,30.32,West,270,0.0,0.0,53,0.00,,,0.00,WUHU216HW,2013-03-26 05:19:00,
2013-03-26 00:20:00,34.9,19.1,30.32,West,270,0.0,0.0,52,0.00,,,0.00,WUHU216HW,2013-03-26 05:20:00,
2013-03-26 00:21:00,34.9,19.4,30.32,WSW,248,0.0,0.0,53,0.00,,,0.00,WUHU216HW,2013-03-26 05:21:00,
2013-03-26 00:23:00,34.7,19.3,30.32,WSW,248,0.0,0.0,53,0.00,,,0.00,WUHU216HW,2013-03-26 05:23:00,
2013-03-26 00:24:00,34.7,19.3,30.32,WSW,248,0.0,0.0,53,0.00,,,0.00,WUHU216HW,2013-03-26 05:24:00,
2013-03-26 00:26:00,34.7,19.3,30.32,WSW,248,0.0,0.0,53,0.00,,,0.00,WUHU216HW,2013-03-26 05:26:00,
2013-03-26 00:27:00,34.7,19.3,30.32,WSW,248,0.0,0.0,53,0.00,,,0.00,WUHU216HW,2013-03-26 05:27:00,
2013-03-26 00:29:00,34.7,20.2,30.32,WSW,248,0.4,0.4,55,0.00,,,0.00,WUHU216HW,2013-03-26 05:29:00,
2013-03-26 00:30:00,34.7,20.2,30.32,WSW,248,0.0,0.4,55,0.00,,,0.00,WUHU216HW,2013-03-26 05:30:00,
2013-03-26 00:32:00,34.6,20.0,30.32,WSW,248,0.2,0.4,55,0.00,,,0.00,WUHU216HW,2013-03-26 05:32:00,
2013-03-26 00:34:00,34.6,19.5,30.32,WSW,248,0.0,0.4,54,0.00,,,0.00,WUHU216HW,2013-03-26 05:34:00,
2013-03-26 00:35:00,34.6,19.5,30.32,WSW,248,0.0,0.4,54,0.00,,,0.00,WUHU216HW,2013-03-26 05:35:00,
2013-03-26 00:37:00,34.4,19.4,30.32,WSW,248,0.0,0.4,54,0.00,,,0.00,WUHU216HW,2013-03-26 05:37:00,
2013-03-26 00:39:00,34.2,19.6,30.32,WSW,248,0.0,0.4,55,0.00,,,0.00,WUHU216HW,2013-03-26 05:39:00,
2013-03-26 00:40:00,34.2,19.2,30.32,WSW,248,0.0,0.2,54,0.00,,,0.00,WUHU216HW,2013-03-26 05:40:00,
2013-03-26 00:42:00,34.0,19.4,30.32,WSW,248,0.0,0.0,55,0.00,,,0.00,WUHU216HW,2013-03-26 05:42:00,
2013-03-26 00:45:00,34.0,19.4,30.32,WSW,248,0.0,0.0,55,0.00,,,0.00,WUHU216HW,2013-03-26 05:45:00,
2013-03-26 00:49:00,33.7,19.5,30.32,WSW,248,0.0,0.0,56,0.00,,,0.00,WUHU216HW,2013-03-26 05:49:00,
2013-03-26 00:52:00,33.5,19.4,30.32,WSW,248,0.0,0.0,56,0.00,,,0.00,WUHU216HW,2013-03-26 05:52:00,
2013-03-26 00:55:00,33.5,19.8,30.32,WSW,248,0.0,0.0,57,0.00,,,0.00,WUHU216HW,2013-03-26 05:55:00,
2013-03-26 00:56:00,33.3,19.2,30.32,WSW,248,0.0,0.0,56,0.00,,,0.00,WUHU216HW,2013-03-26 05:56:00,
2013-03-26 00:58:00,33.3,19.6,30.32,WSW,248,0.0,0.0,57,0.00,,,0.00,WUHU216HW,2013-03-26 05:58:00,
2013-03-26 01:00:00,33.1,19.4,30.32,WSW,248,0.0,0.0,57,0.00,,,0.00,WUHU216HW,2013-03-26 06:00:00,
2013-03-26 01:01:00,33.1,19.4,30.32,WSW,248,0.0,0.0,57,0.00,,,0.00,WUHU216HW,2013-03-26 06:01:00,
2013-03-26 01:02:00,33.1,19.4,30.32,WSW,248,0.0,0.0,57,0.00,,,0.00,WUHU216HW,2013-03-26 06:02:00,
2013-03-26 01:04:00,32.9,19.4,30.32,WSW,248,0.0,0.0,57,0.00,,,0.00,WUHU216HW,2013-03-26 06:04:00,
2013-03-26 01:06:00,32.8,19.2,30.32,WSW,248,0.0,0.0,57,0.00,,,0.00,WUHU216HW,2013-03-26 06:06:00,
2013-03-26 01:08:00,32.8,19.2,30.32,WSW,248,0.0,0.0,57,0.00,,,0.00,WUHU216HW,2013-03-26 06:08:00,
2013-03-26 01:09:00,32.8,19.2,30.31,WSW,248,0.0,0.0,57,0.00,,,0.00,WUHU216HW,2013-03-26 06:09:00,
2013-03-26 01:11:00,32.8,20.0,30.32,WSW,248,0.0,0.0,59,0.00,,,0.00,WUHU216HW,2013-03-26 06:11:00,
2013-03-26 01:13:00,32.8,20.8,30.32,WSW,248,0.0,0.0,61,0.00,,,0.00,WUHU216HW,2013-03-26 06:13:00,
2013-03-26 01:15:00,32.8,20.0,30.32,WSW,248,0.4,0.7,59,0.00,,,0.00,WUHU216HW,2013-03-26 06:15:00,
2013-03-26 01:17:00,32.8,20.0,30.32,WSW,248,0.4,0.7,59,0.00,,,0.00,WUHU216HW,2013-03-26 06:17:00,
2013-03-26 01:20:00,32.6,19.9,30.32,WSW,248,0.0,0.7,59,0.00,,,0.00,WUHU216HW,2013-03-26 06:20:00,
2013-03-26 01:21:00,32.6,19.5,30.32,WSW,248,0.0,0.7,58,0.00,,,0.00,WUHU216HW,2013-03-26 06:21:00,
2013-03-26 01:24:00,32.6,19.5,30.32,WSW,248,0.0,0.4,58,0.00,,,0.00,WUHU216HW,2013-03-26 06:24:00,
2013-03-26 01:27:00,32.6,19.9,30.32,WSW,248,0.0,0.4,59,0.00,,,0.00,WUHU216HW,2013-03-26 06:27:00,
2013-03-26 01:32:00,32.4,20.2,30.32,WSW,248,0.0,0.4,60,0.00,,,0.00,WUHU216HW,2013-03-26 06:32:00,
2013-03-26 01:33:00,32.2,20.0,30.32,WSW,248,0.0,0.4,60,0.00,,,0.00,WUHU216HW,2013-03-26 06:33:00,
2013-03-26 01:34:00,32.2,19.5,30.32,WSW,248,0.0,0.4,59,0.00,,,0.00,WUHU216HW,2013-03-26 06:34:00,
2013-03-26 01:36:00,32.0,19.4,30.32,WSW,248,0.0,0.4,59,0.00,,,0.00,WUHU216HW,2013-03-26 06:36:00,
2013-03-26 01:39:00,32.0,19.4,30.32,WSW,248,0.0,0.4,59,0.00,,,0.00,WUHU216HW,2013-03-26 06:39:00,
2013-03-26 01:42:00,31.9,19.2,30.32,WSW,248,0.0,0.0,59,0.00,,,0.00,WUHU216HW,2013-03-26 06:42:00,
2013-03-26 01:43:00,31.9,19.2,30.32,WSW,248,0.0,0.0,59,0.00,,,0.00,WUHU216HW,2013-03-26 06:43:00,
2013-03-26 01:45:00,31.9,19.2,30.32,WSW,248,0.0,0.0,59,0.00,,,0.00,WUHU216HW,2013-03-26 06:45:00,
2013-03-26 01:47:00,31.7,19.0,30.32,WSW,248,0.0,0.0,59,0.00,,,0.00,WUHU216HW,2013-03-26 06:47:00,
2013-03-26 01:52:00,31.5,20.0,30.32,WSW,248,0.0,0.0,62,0.00,,,0.00,WUHU216HW,2013-03-26 06:52:00,
2013-03-26 01:53:00,31.5,20.0,30.32,WSW,248,0.0,0.0,62,0.00,,,0.00,WUHU216HW,2013-03-26 06:53:00,
2013-03-26 01:54:00,31.5,20.3,30.32,WSW,248,0.0,0.0,63,0.00,,,0.00,WUHU216HW,2013-03-26 06:54:00,
2013-03-26 01:56:00,31.5,20.3,30.32,WSW,248,0.0,0.0,63,0.00,,,0.00,WUHU216HW,2013-03-26 06:56:00,
2013-03-26 01:57:00,31.3,20.2,30.32,WSW,248,0.0,0.0,63,0.00,,,0.00,WUHU216HW,2013-03-26 06:57:00,
2013-03-26 01:58:00,31.3,20.2,30.32,WSW,248,0.0,0.0,63,0.00,,,0.00,WUHU216HW,2013-03-26 06:58:00,
2013-03-26 02:01:00,31.3,20.2,30.32,WSW,248,0.0,0.0,63,0.00,,,0.00,WUHU216HW,2013-03-26 07:01:00,
2013-03-26 02:02:00,31.3,20.5,30.32,WSW,248,0.0,0.0,64,0.00,,,0.00,WUHU216HW,2013-03-26 07:02:00,
2013-03-26 02:03:00,31.3,20.5,30.32,WSW,248,0.0,0.0,64,0.00,,,0.00,WUHU216HW,2013-03-26 07:03:00,
2013-03-26 02:05:00,31.1,20.3,30.32,WSW,248,0.0,0.0,64,0.00,,,0.00,WUHU216HW,2013-03-26 07:05:00,
2013-03-26 02:08:00,31.1,20.3,30.32,WSW,248,0.0,0.0,64,0.00,,,0.00,WUHU216HW,2013-03-26 07:08:00,
2013-03-26 02:10:00,31.1,20.7,30.32,WSW,248,0.0,0.0,65,0.00,,,0.00,WUHU216HW,2013-03-26 07:10:00,
2013-03-26 02:11:00,31.0,20.5,30.31,WSW,248,0.0,0.0,65,0.00,,,0.00,WUHU216HW,2013-03-26 07:11:00,
2013-03-26 02:14:00,31.0,20.5,30.32,WSW,248,0.0,0.0,65,0.00,,,0.00,WUHU216HW,2013-03-26 07:14:00,
2013-03-26 02:15:00,31.0,20.5,30.31,WSW,248,0.0,0.0,65,0.00,,,0.00,WUHU216HW,2013-03-26 07:15:00,
2013-03-26 02:16:00,30.8,20.0,30.32,WSW,248,0.0,0.0,64,0.00,,,0.00,WUHU216HW,2013-03-26 07:16:00,
2013-03-26 02:18:00,30.8,20.0,30.32,WSW,248,0.0,0.0,64,0.00,,,0.00,WUHU216HW,2013-03-26 07:18:00,
2013-03-26 02:19:00,30.6,19.8,30.31,WSW,248,0.0,0.0,64,0.00,,,0.00,WUHU216HW,2013-03-26 07:19:00,
2013-03-26 02:21:00,30.6,20.2,30.31,WSW,248,0.0,0.0,65,0.00,,,0.00,WUHU216HW,2013-03-26 07:21:00,
2013-03-26 02:22:00,30.6,20.2,30.31,WSW,248,0.0,0.0,65,0.00,,,0.00,WUHU216HW,2013-03-26 07:22:00,
2013-03-26 02:24:00,30.6,20.2,30.32,WSW,248,0.0,0.0,65,0.00,,,0.00,WUHU216HW,2013-03-26 07:24:00,
2013-03-26 02:27:00,30.2,20.2,30.32,WSW,248,0.0,0.0,66,0.00,,,0.00,WUHU216HW,2013-03-26 07:27:00,
2013-03-26 02:28:00,30.2,20.2,30.32,WSW,248,0.0,0.0,66,0.00,,,0.00,WUHU216HW,2013-03-26 07:28:00,
2013-03-26 02:30:00,30.1,20.0,30.32,WSW,248,0.0,0.0,66,0.00,,,0.00,WUHU216HW,2013-03-26 07:30:00,
2013-03-26 02:31:00,29.9,19.8,30.32,WSW,248,0.0,0.0,66,0.00,,,0.00,WUHU216HW,2013-03-26 07:31:00,
2013-03-26 02:33:00,29.9,20.9,30.32,WSW,248,0.4,0.4,69,0.00,,,0.00,WUHU216HW,2013-03-26 07:33:00,
2013-03-26 02:34:00,29.9,21.2,30.32,WSW,248,0.0,0.4,70,0.00,,,0.00,WUHU216HW,2013-03-26 07:34:00,
2013-03-26 02:36:00,29.9,20.9,30.31,WSW,248,0.0,0.4,69,0.00,,,0.00,WUHU216HW,2013-03-26 07:36:00,
2013-03-26 02:38:00,29.7,20.8,30.32,WSW,248,0.0,0.4,69,0.00,,,0.00,WUHU216HW,2013-03-26 07:38:00,
2013-03-26 02:39:00,29.7,20.4,30.32,WSW,248,0.0,0.4,68,0.00,,,0.00,WUHU216HW,2013-03-26 07:39:00,
2013-03-26 02:41:00,29.5,20.3,30.32,WSW,248,0.0,0.4,68,0.00,,,0.00,WUHU216HW,2013-03-26 07:41:00,
2013-03-26 02:43:00,29.5,20.3,30.32,WSW,248,0.0,0.0,68,0.00,,,0.00,WUHU216HW,2013-03-26 07:43:00,
2013-03-26 02:44:00,29.5,20.3,30.32,WSW,248,0.0,0.0,68,0.00,,,0.00,WUHU216HW,2013-03-26 07:44:00,
2013-03-26 02:46:00,29.3,20.4,30.32,WSW,248,0.0,0.0,69,0.00,,,0.00,WUHU216HW,2013-03-26 07:46:00,
2013-03-26 02:47:00,29.3,20.8,30.31,WSW,248,0.4,0.4,70,0.00,,,0.00,WUHU216HW,2013-03-26 07:47:00,
2013-03-26 02:48:00,29.2,21.0,30.32,WSW,248,0.4,0.4,71,0.00,,,0.00,WUHU216HW,2013-03-26 07:48:00,
2013-03-26 02:49:00,29.2,21.6,30.32,SW,225,0.4,0.4,73,0.00,,,0.00,WUHU216HW,2013-03-26 07:49:00,
2013-03-26 02:52:00,29.0,21.1,30.32,SW,225,0.0,0.4,72,0.00,,,0.00,WUHU216HW,2013-03-26 07:52:00,
2013-03-26 02:53:00,29.0,20.4,30.32,SW,225,0.0,0.4,70,0.00,,,0.00,WUHU216HW,2013-03-26 07:53:00,
2013-03-26 02:55:00,29.0,20.1,30.32,SW,225,0.0,0.4,69,0.00,,,0.00,WUHU216HW,2013-03-26 07:55:00,
2013-03-26 02:58:00,29.0,20.1,30.32,SW,225,0.0,0.4,69,0.00,,,0.00,WUHU216HW,2013-03-26 07:58:00,
2013-03-26 03:00:00,28.8,19.6,30.32,SW,225,0.0,0.4,68,0.00,,,0.00,WUHU216HW,2013-03-26 08:00:00,
2013-03-26 03:04:00,28.6,19.5,30.32,SW,225,0.0,0.0,68,0.00,,,0.00,WUHU216HW,2013-03-26 08:04:00,
2013-03-26 03:07:00,28.6,19.5,30.32,SW,225,0.0,0.0,68,0.00,,,0.00,WUHU216HW,2013-03-26 08:07:00,
2013-03-26 03:09:00,28.4,19.3,30.32,SW,225,0.0,0.0,68,0.00,,,0.00,WUHU216HW,2013-03-26 08:09:00,
2013-03-26 03:15:00,28.3,21.1,30.32,SW,225,0.0,0.0,74,0.00,,,0.00,WUHU216HW,2013-03-26 08:15:00,
2013-03-26 03:20:00,28.1,21.2,30.32,WSW,248,0.7,0.7,75,0.00,,,0.00,WUHU216HW,2013-03-26 08:20:00,
2013-03-26 03:24:00,28.3,21.3,30.32,WSW,248,1.1,1.1,75,0.00,,,0.00,WUHU216HW,2013-03-26 08:24:00,
2013-03-26 03:26:00,28.3,21.3,30.32,WSW,248,0.9,1.1,75,0.00,,,0.00,WUHU216HW,2013-03-26 08:26:00,
2013-03-26 03:28:00,28.4,21.8,30.32,WSW,248,0.7,1.1,76,0.00,,,0.00,WUHU216HW,2013-03-26 08:28:00,
2013-03-26 03:31:00,28.4,21.5,30.32,SW,225,0.9,1.1,75,0.00,,,0.00,WUHU216HW,2013-03-26 08:31:00,
2013-03-26 03:35:00,28.4,21.3,30.32,WSW,248,0.0,1.1,74,0.00,,,0.00,WUHU216HW,2013-03-26 08:35:00,
2013-03-26 03:38:00,28.4,21.5,30.32,WSW,248,0.4,0.9,75,0.00,,,0.00,WUHU216HW,2013-03-26 08:38:00,
2013-03-26 03:40:00,28.4,21.5,30.32,WSW,248,0.7,0.9,75,0.00,,,0.00,WUHU216HW,2013-03-26 08:40:00,
2013-03-26 03:45:00,28.1,20.9,30.32,WSW,248,0.0,0.9,74,0.00,,,0.00,WUHU216HW,2013-03-26 08:45:00,
2013-03-26 03:50:00,27.7,20.5,30.32,WSW,248,0.0,0.4,74,0.00,,,0.00,WUHU216HW,2013-03-26 08:50:00,
2013-03-26 03:55:00,27.7,20.2,30.32,WSW,248,0.0,0.4,73,0.00,,,0.00,WUHU216HW,2013-03-26 08:55:00,
2013-03-26 04:00:00,27.7,20.2,30.32,West,270,0.0,0.4,73,0.00,,,0.00,WUHU216HW,2013-03-26 09:00:00,
2013-03-26 04:05:00,27.7,20.8,30.32,West,270,0.0,0.0,75,0.00,,,0.00,WUHU216HW,2013-03-26 09:05:00,
2013-03-26 04:10:00,27.5,20.6,30.32,West,270,0.0,0.0,75,0.00,,,0.00,WUHU216HW,2013-03-26 09:10:00,
2013-03-26 04:15:00,27.0,20.7,30.31,WSW,248,0.7,1.1,77,0.00,,,0.00,WUHU216HW,2013-03-26 09:15:00,
2013-03-26 04:20:00,26.6,20.6,30.32,SW,225,0.4,1.1,78,0.00,,,0.00,WUHU216HW,2013-03-26 09:20:00,
2013-03-26 04:25:00,26.3,20.0,30.32,SW,225,0.0,0.9,77,0.00,,,0.00,WUHU216HW,2013-03-26 09:25:00,
2013-03-26 04:30:00,26.3,19.7,30.32,SW,225,0.0,0.4,76,0.00,,,0.00,WUHU216HW,2013-03-26 09:30:00,
2013-03-26 04:36:00,25.9,20.3,30.32,SW,225,0.4,0.7,79,0.00,,,0.00,WUHU216HW,2013-03-26 09:36:00,
2013-03-26 04:41:00,25.9,20.6,30.32,WSW,248,0.0,0.7,80,0.00,,,0.00,WUHU216HW,2013-03-26 09:41:00,
2013-03-26 04:46:00,26.1,20.8,30.32,WSW,248,0.7,0.7,80,0.00,,,0.00,WUHU216HW,2013-03-26 09:46:00,
2013-03-26 04:51:00,26.1,20.2,30.32,NW,315,0.0,0.7,78,0.00,,,0.00,WUHU216HW,2013-03-26 09:51:00,
2013-03-26 04:56:00,26.3,20.0,30.32,NNW,338,0.4,0.4,77,0.00,,,0.00,WUHU216HW,2013-03-26 09:56:00,
2013-03-26 05:01:00,26.3,19.7,30.32,NNW,338,0.0,0.4,76,0.00,,,0.00,WUHU216HW,2013-03-26 10:01:00,
2013-03-26 05:06:00,26.5,19.9,30.33,NNW,338,0.0,0.0,76,0.00,,,0.00,WUHU216HW,2013-03-26 10:06:00,
2013-03-26 05:11:00,26.5,19.9,30.33,NNW,338,0.0,0.0,76,0.00,,,0.00,WUHU216HW,2013-03-26 10:11:00,
2013-03-26 05:16:00,26.3,19.4,30.32,NNW,338,0.0,0.0,75,0.00,,,0.00,WUHU216HW,2013-03-26 10:16:00,
2013-03-26 05:21:00,26.1,19.2,30.33,NNW,338,0.0,0.0,75,0.00,,,0.00,WUHU216HW,2013-03-26 10:21:00,
2013-03-26 05:26:00,25.9,19.0,30.33,NNW,338,0.0,0.0,75,0.00,,,0.00,WUHU216HW,2013-03-26 10:26:00,
2013-03-26 05:31:00,25.7,18.8,30.33,NNW,338,0.0,0.0,75,0.00,,,0.00,WUHU216HW,2013-03-26 10:31:00,
2013-03-26 05:36:00,25.7,18.8,30.33,NNW,338,0.0,0.0,75,0.00,,,0.00,WUHU216HW,2013-03-26 10:36:00,
2013-03-26 05:42:00,25.6,19.4,30.33,NNW,338,0.0,0.0,77,0.00,,,0.00,WUHU216HW,2013-03-26 10:42:00,
2013-03-26 05:48:00,25.2,19.6,30.34,NW,315,0.0,0.0,79,0.00,,,0.00,WUHU216HW,2013-03-26 10:48:00,
2013-03-26 05:56:00,25.0,19.8,30.34,West,270,0.0,0.0,80,0.00,,,0.00,WUHU216HW,2013-03-26 10:56:00,
2013-03-26 05:57:00,24.8,19.9,30.34,West,270,0.0,0.0,81,0.00,,,0.00,WUHU216HW,2013-03-26 10:57:00,
2013-03-26 05:58:00,24.8,19.9,30.34,West,270,0.0,0.0,81,0.00,,,0.00,WUHU216HW,2013-03-26 10:58:00,
2013-03-26 06:01:00,24.8,20.2,30.34,WSW,248,0.0,0.0,82,0.00,,,0.00,WUHU216HW,2013-03-26 11:01:00,
2013-03-26 06:02:00,24.8,20.2,30.34,WSW,248,0.0,0.0,82,0.00,,,0.00,WUHU216HW,2013-03-26 11:02:00,
2013-03-26 06:04:00,24.8,20.2,30.34,WSW,248,0.0,0.0,82,0.00,,,0.00,WUHU216HW,2013-03-26 11:04:00,
2013-03-26 06:05:00,24.8,19.9,30.34,WSW,248,0.0,0.0,81,0.00,,,0.00,WUHU216HW,2013-03-26 11:05:00,
2013-03-26 06:07:00,24.8,19.6,30.34,WSW,248,0.0,0.0,80,0.00,,,0.00,WUHU216HW,2013-03-26 11:07:00,
2013-03-26 06:08:00,24.8,19.6,30.34,WSW,248,0.0,0.0,80,0.00,,,0.00,WUHU216HW,2013-03-26 11:08:00,
2013-03-26 06:10:00,24.7,19.4,30.34,WSW,248,0.0,0.0,80,0.00,,,0.00,WUHU216HW,2013-03-26 11:10:00,
2013-03-26 06:11:00,24.7,19.1,30.34,WSW,248,0.0,0.0,79,0.00,,,0.00,WUHU216HW,2013-03-26 11:11:00,
2013-03-26 06:12:00,24.7,19.1,30.34,WSW,248,0.0,0.0,79,0.00,,,0.00,WUHU216HW,2013-03-26 11:12:00,
2013-03-26 06:15:00,24.7,19.1,30.34,WSW,248,0.0,0.0,79,0.00,,,0.00,WUHU216HW,2013-03-26 11:15:00,
2013-03-26 06:17:00,24.7,19.1,30.35,WSW,248,0.0,0.0,79,0.00,,,0.00,WUHU216HW,2013-03-26 11:17:00,
2013-03-26 06:18:00,24.7,19.1,30.34,WSW,248,0.0,0.0,79,0.00,,,0.00,WUHU216HW,2013-03-26 11:18:00,
2013-03-26 06:19:00,24.7,19.1,30.34,WSW,248,0.0,0.0,79,0.00,,,0.00,WUHU216HW,2013-03-26 11:19:00,
2013-03-26 06:22:00,24.7,19.1,30.34,WSW,248,0.0,0.0,79,0.00,,,0.00,WUHU216HW,2013-03-26 11:22:00,
2013-03-26 06:23:00,24.8,19.3,30.35,WSW,248,0.0,0.0,79,0.00,,,0.00,WUHU216HW,2013-03-26 11:23:00,
2013-03-26 06:25:00,24.8,19.3,30.35,WSW,248,0.0,0.0,79,0.00,,,0.00,WUHU216HW,2013-03-26 11:25:00,
2013-03-26 06:26:00,24.8,19.6,30.35,WSW,248,0.0,0.0,80,0.00,,,0.00,WUHU216HW,2013-03-26 11:26:00,
2013-03-26 06:28:00,24.8,19.9,30.35,WSW,248,0.0,0.0,81,0.00,,,0.00,WUHU216HW,2013-03-26 11:28:00,
2013-03-26 06:30:00,24.8,20.2,30.35,WSW,248,0.0,0.0,82,0.00,,,0.00,WUHU216HW,2013-03-26 11:30:00,
2013-03-26 06:31:00,24.8,20.2,30.35,WSW,248,0.0,0.0,82,0.00,,,0.00,WUHU216HW,2013-03-26 11:31:00,
2013-03-26 06:32:00,24.8,19.9,30.35,WSW,248,0.0,0.0,81,0.00,,,0.00,WUHU216HW,2013-03-26 11:32:00,
2013-03-26 06:41:00,24.7,20.0,30.36,WSW,248,0.0,0.0,82,0.00,,,0.00,WUHU216HW,2013-03-26 11:41:00,
2013-03-26 06:47:00,24.5,19.5,30.36,WSW,248,0.0,0.0,81,0.00,,,0.00,WUHU216HW,2013-03-26 11:47:00,
2013-03-26 06:52:00,24.5,19.5,30.36,WSW,248,0.0,0.0,81,0.00,,,0.00,WUHU216HW,2013-03-26 11:52:00,
2013-03-26 06:57:00,24.5,19.8,30.36,WSW,248,0.0,0.0,82,0.00,,,0.00,WUHU216HW,2013-03-26 11:57:00,
2013-03-26 07:02:00,24.5,19.8,30.36,WSW,248,0.0,0.0,82,0.00,,,0.00,WUHU216HW,2013-03-26 12:02:00,
2013-03-26 07:07:00,24.3,19.4,30.36,WSW,248,0.0,0.0,81,0.00,,,0.00,WUHU216HW,2013-03-26 12:07:00,
2013-03-26 07:12:00,24.5,20.1,30.37,WSW,248,0.0,0.0,83,0.00,,,0.00,WUHU216HW,2013-03-26 12:12:00,
2013-03-26 07:17:00,24.3,19.9,30.37,WSW,248,0.0,0.0,83,0.00,,,0.00,WUHU216HW,2013-03-26 12:17:00,
2013-03-26 07:22:00,24.1,19.4,30.37,WSW,248,0.0,0.0,82,0.00,,,0.00,WUHU216HW,2013-03-26 12:22:00,
2013-03-26 07:27:00,23.8,19.1,30.38,WSW,248,0.0,0.0,82,0.00,,,0.00,WUHU216HW,2013-03-26 12:27:00,
2013-03-26 07:32:00,23.8,18.8,30.38,WSW,248,0.0,0.0,81,0.00,,,0.00,WUHU216HW,2013-03-26 12:32:00,
2013-03-26 07:37:00,24.3,19.4,30.39,WSW,248,0.0,0.0,81,0.00,,,0.00,WUHU216HW,2013-03-26 12:37:00,
2013-03-26 07:42:00,24.7,19.4,30.39,WSW,248,0.0,0.0,80,0.00,,,0.00,WUHU216HW,2013-03-26 12:42:00,
2013-03-26 07:47:00,24.8,19.9,30.39,WSW,248,0.0,0.0,81,0.00,,,0.00,WUHU216HW,2013-03-26 12:47:00,
2013-03-26 07:52:00,25.0,19.8,30.39,WSW,248,0.0,0.0,80,0.00,,,0.00,WUHU216HW,2013-03-26 12:52:00,
2013-03-26 07:57:00,25.6,20.3,30.40,WSW,248,0.0,0.0,80,0.00,,,0.00,WUHU216HW,2013-03-26 12:57:00,
2013-03-26 08:02:00,26.1,21.1,30.39,WSW,248,0.0,0.0,81,0.00,,,0.00,WUHU216HW,2013-03-26 13:02:00,
2013-03-26 08:07:00,26.6,21.5,30.40,WSW,248,0.0,0.0,81,0.00,,,0.00,WUHU216HW,2013-03-26 13:07:00,
2013-03-26 08:12:00,27.4,22.2,30.39,WSW,248,0.0,0.0,81,0.00,,,0.00,WUHU216HW,2013-03-26 13:12:00,
2013-03-26 08:17:00,28.4,23.3,30.40,WSW,248,0.0,0.0,81,0.00,,,0.00,WUHU216HW,2013-03-26 13:17:00,
2013-03-26 08:22:00,29.2,23.8,30.40,WSW,248,0.0,0.0,80,0.00,,,0.00,WUHU216HW,2013-03-26 13:22:00,
2013-03-26 08:27:00,30.1,24.7,30.40,WSW,248,0.0,0.0,80,0.00,,,0.00,WUHU216HW,2013-03-26 13:27:00,
2013-03-26 08:33:00,31.0,25.2,30.41,WSW,248,0.0,0.0,79,0.00,,,0.00,WUHU216HW,2013-03-26 13:33:00,
2013-03-26 08:39:00,32.0,26.6,30.41,North,0,0.0,0.4,80,0.00,,,0.00,WUHU216HW,2013-03-26 13:39:00,
2013-03-26 08:44:00,34.0,27.8,30.41,NNW,338,0.0,0.7,78,0.00,,,0.00,WUHU216HW,2013-03-26 13:44:00,
2013-03-26 08:49:00,35.6,29.1,30.42,NNE,23,0.0,0.7,77,0.00,,,0.00,WUHU216HW,2013-03-26 13:49:00,
2013-03-26 08:54:00,36.9,30.1,30.42,North,0,1.1,1.1,76,0.00,,,0.00,WUHU216HW,2013-03-26 13:54:00,
2013-03-26 08:59:00,37.4,30.2,30.42,NNE,23,0.2,1.1,75,0.00,,,0.00,WUHU216HW,2013-03-26 13:59:00,
2013-03-26 09:04:00,38.3,29.8,30.42,NE,45,1.1,1.6,71,0.00,,,0.00,WUHU216HW,2013-03-26 14:04:00,
2013-03-26 09:09:00,39.2,29.9,30.42,NNW,338,0.9,1.6,69,0.00,,,0.00,WUHU216HW,2013-03-26 14:09:00,
2013-03-26 09:14:00,40.0,29.8,30.42,NW,315,1.3,2.7,67,0.00,,,0.00,WUHU216HW,2013-03-26 14:14:00,
2013-03-26 09:19:00,40.3,28.7,30.43,North,0,1.8,3.8,63,0.00,,,0.00,WUHU216HW,2013-03-26 14:19:00,
2013-03-26 09:24:00,40.3,27.5,30.42,NNW,338,1.3,3.8,60,0.00,,,0.00,WUHU216HW,2013-03-26 14:24:00,
2013-03-26 09:29:00,40.9,27.6,30.43,NNE,23,4.3,4.5,59,0.00,,,0.00,WUHU216HW,2013-03-26 14:29:00,
2013-03-26 09:34:00,41.2,25.8,30.42,NNW,338,0.9,4.5,54,0.00,,,0.00,WUHU216HW,2013-03-26 14:34:00,
2013-03-26 09:39:00,41.6,25.2,30.43,North,0,4.5,4.5,52,0.00,,,0.00,WUHU216HW,2013-03-26 14:39:00,
2013-03-26 09:44:00,41.8,24.5,30.43,NNW,338,4.5,6.9,50,0.00,,,0.00,WUHU216HW,2013-03-26 14:44:00,
2013-03-26 09:49:00,42.5,25.7,30.43,NNW,338,3.6,6.9,51,0.00,,,0.00,WUHU216HW,2013-03-26 14:49:00,
2013-03-26 09:54:00,43.2,25.9,30.43,NNW,338,1.8,4.5,50,0.00,,,0.00,WUHU216HW,2013-03-26 14:54:00,
2013-03-26 09:59:00,43.6,25.1,30.43,North,0,6.5,6.5,48,0.00,,,0.00,WUHU216HW,2013-03-26 14:59:00,
2013-03-26 10:05:00,43.6,25.1,30.43,NNE,23,2.0,6.5,48,0.00,,,0.00,WUHU216HW,2013-03-26 15:05:00,
2013-03-26 10:10:00,43.6,24.6,30.43,North,0,1.8,6.5,47,0.00,,,0.00,WUHU216HW,2013-03-26 15:10:00,
2013-03-26 10:15:00,43.9,23.3,30.43,NW,315,2.2,4.3,44,0.00,,,0.00,WUHU216HW,2013-03-26 15:15:00,
2013-03-26 10:20:00,43.2,22.2,30.43,WNW,293,3.6,3.8,43,0.00,,,0.00,WUHU216HW,2013-03-26 15:20:00,
2013-03-26 10:25:00,43.6,22.4,30.43,NW,315,1.1,6.5,43,0.00,,,0.00,WUHU216HW,2013-03-26 15:25:00,
2013-03-26 10:30:00,43.9,22.2,30.43,NNW,338,5.1,6.5,42,0.00,,,0.00,WUHU216HW,2013-03-26 15:30:00,
2013-03-26 10:35:00,43.7,21.0,30.43,NNW,338,1.6,5.1,40,0.00,,,0.00,WUHU216HW,2013-03-26 15:35:00,
2013-03-26 10:40:00,44.1,21.3,30.42,NNW,338,1.1,5.1,40,0.00,,,0.00,WUHU216HW,2013-03-26 15:40:00,
2013-03-26 10:45:00,44.3,22.0,30.43,NW,315,3.4,4.5,41,0.00,,,0.00,WUHU216HW,2013-03-26 15:45:00,
2013-03-26 10:50:00,44.3,22.0,30.43,North,0,4.0,4.0,41,0.00,,,0.00,WUHU216HW,2013-03-26 15:50:00,
2013-03-26 10:55:00,45.0,22.2,30.42,WSW,248,1.8,4.0,40,0.00,,,0.00,WUHU216HW,2013-03-26 15:55:00,
2013-03-26 11:00:00,45.4,23.5,30.42,North,0,4.9,4.9,42,0.00,,,0.00,WUHU216HW,2013-03-26 16:00:00,
2013-03-26 11:05:00,46.3,23.8,30.42,NE,45,1.1,4.9,41,0.00,,,0.00,WUHU216HW,2013-03-26 16:05:00,
2013-03-26 11:10:00,47.3,23.6,30.43,North,0,3.6,6.3,39,0.00,,,0.00,WUHU216HW,2013-03-26 16:10:00,
2013-03-26 11:15:00,47.7,23.2,30.42,NNW,338,4.0,6.3,38,0.00,,,0.00,WUHU216HW,2013-03-26 16:15:00,
2013-03-26 11:20:00,46.8,22.4,30.43,South,180,1.3,4.0,38,0.00,,,0.00,WUHU216HW,2013-03-26 16:20:00,
2013-03-26 11:25:00,47.5,24.4,30.42,NNW,338,2.5,6.0,40,0.00,,,0.00,WUHU216HW,2013-03-26 16:25:00,
2013-03-26 11:30:00,47.5,22.4,30.42,SW,225,4.5,6.3,37,0.00,,,0.00,WUHU216HW,2013-03-26 16:30:00,
2013-03-26 11:35:00,47.3,22.2,30.42,NNE,23,0.9,6.3,37,0.00,,,0.00,WUHU216HW,2013-03-26 16:35:00,
2013-03-26 11:40:00,47.3,22.9,30.42,WSW,248,4.3,4.9,38,0.00,,,0.00,WUHU216HW,2013-03-26 16:40:00,
2013-03-26 11:45:00,47.5,23.0,30.42,WNW,293,4.7,4.7,38,0.00,,,0.00,WUHU216HW,2013-03-26 16:45:00,
2013-03-26 11:50:00,47.9,23.4,30.42,WSW,248,0.9,4.7,38,0.00,,,0.00,WUHU216HW,2013-03-26 16:50:00,
2013-03-26 11:55:00,47.9,23.4,30.41,North,0,4.9,7.2,38,0.00,,,0.00,WUHU216HW,2013-03-26 16:55:00,
2013-03-26 12:00:00,49.0,24.3,30.41,NW,315,5.1,7.2,38,0.00,,,0.00,WUHU216HW,2013-03-26 17:00:00,
2013-03-26 12:05:00,49.3,23.3,30.41,West,270,1.8,6.5,36,0.00,,,0.00,WUHU216HW,2013-03-26 17:05:00,
2013-03-26 12:10:00,49.3,21.2,30.40,West,270,3.8,4.0,33,0.00,,,0.00,WUHU216HW,2013-03-26 17:10:00,
2013-03-26 12:15:00,49.5,22.1,30.40,North,0,4.5,4.5,34,0.00,,,0.00,WUHU216HW,2013-03-26 17:15:00,
2013-03-26 12:20:00,49.7,23.6,30.40,NW,315,3.4,5.8,36,0.00,,,0.00,WUHU216HW,2013-03-26 17:20:00,
2013-03-26 12:25:00,50.2,22.7,30.40,WNW,293,4.5,5.8,34,0.00,,,0.00,WUHU216HW,2013-03-26 17:25:00,
2013-03-26 12:30:00,50.2,24.0,30.40,NNW,338,4.0,4.5,36,0.00,,,0.00,WUHU216HW,2013-03-26 17:30:00,
2013-03-26 12:35:00,51.1,24.8,30.39,NNE,23,4.7,4.7,36,0.00,,,0.00,WUHU216HW,2013-03-26 17:35:00,
2013-03-26 12:40:00,51.8,24.8,30.39,North,0,4.0,8.5,35,0.00,,,0.00,WUHU216HW,2013-03-26 17:40:00,
2013-03-26 12:45:00,51.5,23.1,30.39,NW,315,2.7,8.5,33,0.00,,,0.00,WUHU216HW,2013-03-26 17:45:00,
2013-03-26 12:50:00,52.0,25.0,30.38,NW,315,5.1,7.4,35,0.00,,,0.00,WUHU216HW,2013-03-26 17:50:00,
2013-03-26 12:55:00,52.6,24.9,30.38,NW,315,3.6,7.4,34,0.00,,,0.00,WUHU216HW,2013-03-26 17:55:00,
2013-03-26 13:00:00,52.9,25.1,30.38,NNW,338,3.1,6.3,34,0.00,,,0.00,WUHU216HW,2013-03-26 18:00:00,
2013-03-26 13:05:00,53.6,25.7,30.38,North,0,1.3,5.4,34,0.00,,,0.00,WUHU216HW,2013-03-26 18:05:00,
2013-03-26 13:10:00,52.9,24.5,30.38,West,270,4.3,5.4,33,0.00,,,0.00,WUHU216HW,2013-03-26 18:10:00,
2013-03-26 13:15:00,52.7,24.3,30.38,North,0,3.1,5.4,33,0.00,,,0.00,WUHU216HW,2013-03-26 18:15:00,
2013-03-26 13:20:00,53.3,24.8,30.37,NNW,338,5.4,6.7,33,0.00,,,0.00,WUHU216HW,2013-03-26 18:20:00,
2013-03-26 13:25:00,53.5,24.2,30.37,NNW,338,3.6,6.7,32,0.00,,,0.00,WUHU216HW,2013-03-26 18:25:00,
2013-03-26 13:30:00,53.5,23.6,30.37,North,0,1.3,5.6,31,0.00,,,0.00,WUHU216HW,2013-03-26 18:30:00,
2013-03-26 13:35:00,53.8,25.2,30.37,North,0,9.2,9.2,33,0.00,,,0.00,WUHU216HW,2013-03-26 18:35:00,
2013-03-26 13:40:00,54.0,24.7,30.37,NNW,338,2.0,9.2,32,0.00,,,0.00,WUHU216HW,2013-03-26 18:40:00,
2013-03-26 13:45:00,54.4,25.0,30.37,NNW,338,2.5,4.7,32,0.00,,,0.00,WUHU216HW,2013-03-26 18:45:00,
2013-03-26 13:51:00,53.3,24.1,30.36,NNW,338,5.1,6.0,32,0.00,,,0.00,WUHU216HW,2013-03-26 18:51:00,
2013-03-26 13:56:00,54.7,25.3,30.36,NNW,338,6.9,7.6,32,0.00,,,0.00,WUHU216HW,2013-03-26 18:56:00,
2013-03-26 14:01:00,54.5,25.8,30.36,NNE,23,2.9,7.6,33,0.00,,,0.00,WUHU216HW,2013-03-26 19:01:00,
2013-03-26 14:06:00,55.6,26.0,30.35,NW,315,2.9,7.6,32,0.00,,,0.00,WUHU216HW,2013-03-26 19:06:00,
2013-03-26 14:11:00,55.3,25.0,30.34,North,0,2.7,7.6,31,0.00,,,0.00,WUHU216HW,2013-03-26 19:11:00,
2013-03-26 14:16:00,55.1,25.6,30.34,NNW,338,2.0,5.6,32,0.00,,,0.00,WUHU216HW,2013-03-26 19:16:00,
2013-03-26 14:21:00,54.9,24.8,30.34,NNW,338,6.9,6.9,31,0.00,,,0.00,WUHU216HW,2013-03-26 19:21:00,
2013-03-26 14:26:00,54.7,24.6,30.34,NW,315,2.2,6.9,31,0.00,,,0.00,WUHU216HW,2013-03-26 19:26:00,
2013-03-26 14:31:00,55.8,26.2,30.34,North,0,4.0,6.7,32,0.00,,,0.00,WUHU216HW,2013-03-26 19:31:00,
2013-03-26 14:32:00,56.0,26.4,30.34,NW,315,4.7,6.7,32,0.00,,,0.00,WUHU216HW,2013-03-26 19:32:00,
2013-03-26 14:33:00,56.0,24.9,30.33,NW,315,3.4,6.7,30,0.00,,,0.00,WUHU216HW,2013-03-26 19:33:00,
2013-03-26 14:35:00,56.0,25.7,30.34,WNW,293,1.1,6.7,31,0.00,,,0.00,WUHU216HW,2013-03-26 19:35:00,
2013-03-26 14:36:00,55.8,23.9,30.34,WNW,293,0.9,6.7,29,0.00,,,0.00,WUHU216HW,2013-03-26 19:36:00,
2013-03-26 14:37:00,55.8,23.9,30.33,SW,225,6.9,6.9,29,0.00,,,0.00,WUHU216HW,2013-03-26 19:37:00,
2013-03-26 14:38:00,55.6,24.7,30.33,NW,315,1.3,6.9,30,0.00,,,0.00,WUHU216HW,2013-03-26 19:38:00,
2013-03-26 14:39:00,55.4,23.6,30.33,West,270,2.2,6.9,29,0.00,,,0.00,WUHU216HW,2013-03-26 19:39:00,
2013-03-26 14:41:00,55.6,25.4,30.34,NNW,338,6.0,6.9,31,0.00,,,0.00,WUHU216HW,2013-03-26 19:41:00,
2013-03-26 14:42:00,55.8,26.2,30.33,NW,315,4.7,6.9,32,0.00,,,0.00,WUHU216HW,2013-03-26 19:42:00,
2013-03-26 14:43:00,56.2,25.8,30.33,NNW,338,3.4,6.9,31,0.00,,,0.00,WUHU216HW,2013-03-26 19:43:00,
2013-03-26 14:44:00,56.3,24.3,30.33,NNW,338,2.5,6.9,29,0.00,,,0.00,WUHU216HW,2013-03-26 19:44:00,
2013-03-26 14:46:00,56.5,24.5,30.33,NNW,338,2.9,6.9,29,0.00,,,0.00,WUHU216HW,2013-03-26 19:46:00,
2013-03-26 14:47:00,56.3,25.3,30.33,WNW,293,2.9,6.0,30,0.00,,,0.00,WUHU216HW,2013-03-26 19:47:00,
2013-03-26 14:48:00,56.5,25.5,30.33,NW,315,4.7,6.0,30,0.00,,,0.00,WUHU216HW,2013-03-26 19:48:00,
2013-03-26 14:49:00,56.3,24.3,30.33,NNW,338,1.8,6.0,29,0.00,,,0.00,WUHU216HW,2013-03-26 19:49:00,
2013-03-26 14:51:00,56.0,23.0,30.33,NNW,338,2.2,4.7,28,0.00,,,0.00,WUHU216HW,2013-03-26 19:51:00,
2013-03-26 14:52:00,55.8,23.0,30.33,WSW,248,2.2,4.7,28,0.00,,,0.00,WUHU216HW,2013-03-26 19:52:00,
2013-03-26 14:53:00,55.4,21.7,30.33,ESE,113,2.5,4.7,27,0.00,,,0.00,WUHU216HW,2013-03-26 19:53:00,
2013-03-26 14:54:00,55.3,22.5,30.33,SE,135,3.4,4.7,28,0.00,,,0.00,WUHU216HW,2013-03-26 19:54:00,
2013-03-26 14:55:00,55.1,24.9,30.32,SE,135,1.3,4.7,31,0.00,,,0.00,WUHU216HW,2013-03-26 19:55:00,
2013-03-26 14:57:00,55.4,25.2,30.32,NNE,23,7.8,7.8,31,0.00,,,0.00,WUHU216HW,2013-03-26 19:57:00,
2013-03-26 14:58:00,55.6,25.4,30.32,NW,315,4.9,7.8,31,0.00,,,0.00,WUHU216HW,2013-03-26 19:58:00,
2013-03-26 14:59:00,56.0,24.0,30.32,NNW,338,4.7,7.8,29,0.00,,,0.00,WUHU216HW,2013-03-26 19:59:00,
2013-03-26 15:01:00,56.2,25.1,30.32,North,0,5.8,7.8,30,0.00,,,0.00,WUHU216HW,2013-03-26 20:01:00,
2013-03-26 15:02:00,56.2,25.1,30.32,North,0,4.7,7.8,30,0.00,,,0.00,WUHU216HW,2013-03-26 20:02:00,
2013-03-26 15:03:00,56.3,25.3,30.32,NW,315,1.8,7.8,30,0.00,,,0.00,WUHU216HW,2013-03-26 20:03:00,
2013-03-26 15:05:00,56.7,26.3,30.32,NW,315,4.7,7.8,31,0.00,,,0.00,WUHU216HW,2013-03-26 20:05:00,
2013-03-26 15:06:00,56.9,26.5,30.32,NNW,338,1.8,7.8,31,0.00,,,0.00,WUHU216HW,2013-03-26 20:06:00,
2013-03-26 15:07:00,57.1,27.4,30.31,NW,315,8.1,8.1,32,0.00,,,0.00,WUHU216HW,2013-03-26 20:07:00,
2013-03-26 15:08:00,57.4,27.0,30.31,North,0,2.2,8.1,31,0.00,,,0.00,WUHU216HW,2013-03-26 20:08:00,
2013-03-26 15:10:00,57.8,25.7,30.31,WNW,293,1.8,8.1,29,0.00,,,0.00,WUHU216HW,2013-03-26 20:10:00,
2013-03-26 15:11:00,58.0,26.7,30.32,NNW,338,4.0,8.1,30,0.00,,,0.00,WUHU216HW,2013-03-26 20:11:00,
2013-03-26 15:12:00,58.0,26.7,30.32,North,0,3.4,8.1,30,0.00,,,0.00,WUHU216HW,2013-03-26 20:12:00,
2013-03-26 15:13:00,58.0,24.9,30.32,NNW,338,5.8,8.1,28,0.00,,,0.00,WUHU216HW,2013-03-26 20:13:00,
2013-03-26 15:14:00,57.8,25.7,30.31,NW,315,2.0,8.1,29,0.00,,,0.00,WUHU216HW,2013-03-26 20:14:00,
2013-03-26 15:16:00,57.8,23.7,30.31,NNW,338,1.6,8.1,27,0.00,,,0.00,WUHU216HW,2013-03-26 20:16:00,
2013-03-26 15:17:00,57.8,25.7,30.31,NNW,338,3.6,5.8,29,0.00,,,0.00,WUHU216HW,2013-03-26 20:17:00,
2013-03-26 15:18:00,57.6,24.5,30.31,NNW,338,2.9,5.8,28,0.00,,,0.00,WUHU216HW,2013-03-26 20:18:00,
2013-03-26 15:19:00,57.6,25.5,30.31,NNW,338,6.0,6.0,29,0.00,,,0.00,WUHU216HW,2013-03-26 20:19:00,
2013-03-26 15:21:00,58.0,25.8,30.31,NNW,338,1.3,6.0,29,0.00,,,0.00,WUHU216HW,2013-03-26 20:21:00,
2013-03-26 15:22:00,58.0,23.9,30.31,SW,225,6.3,6.3,27,0.00,,,0.00,WUHU216HW,2013-03-26 20:22:00,
2013-03-26 15:23:00,57.8,24.7,30.31,SW,225,1.1,6.3,28,0.00,,,0.00,WUHU216HW,2013-03-26 20:23:00,
2013-03-26 15:24:00,57.8,24.7,30.31,SW,225,3.8,6.3,28,0.00,,,0.00,WUHU216HW,2013-03-26 20:24:00,
2013-03-26 15:25:00,57.6,24.5,30.30,WNW,293,3.4,6.3,28,0.00,,,0.00,WUHU216HW,2013-03-26 20:25:00,
2013-03-26 15:27:00,57.2,24.2,30.31,NW,315,3.1,6.3,28,0.00,,,0.00,WUHU216HW,2013-03-26 20:27:00,
2013-03-26 15:28:00,57.1,24.0,30.31,NW,315,1.8,6.3,28,0.00,,,0.00,WUHU216HW,2013-03-26 20:28:00,
2013-03-26 15:29:00,56.9,23.9,30.30,WSW,248,2.5,6.3,28,0.00,,,0.00,WUHU216HW,2013-03-26 20:29:00,
2013-03-26 15:30:00,57.2,25.1,30.30,West,270,1.1,6.3,29,0.00,,,0.00,WUHU216HW,2013-03-26 20:30:00,
2013-03-26 15:32:00,57.6,25.5,30.30,West,270,4.0,4.3,29,0.00,,,0.00,WUHU216HW,2013-03-26 20:32:00,
2013-03-26 15:33:00,57.8,23.7,30.30,NNW,338,3.8,4.3,27,0.00,,,0.00,WUHU216HW,2013-03-26 20:33:00,
2013-03-26 15:34:00,57.8,25.7,30.30,North,0,4.0,4.3,29,0.00,,,0.00,WUHU216HW,2013-03-26 20:34:00,
2013-03-26 15:35:00,57.8,26.6,30.30,NNW,338,2.5,4.3,30,0.00,,,0.00,WUHU216HW,2013-03-26 20:35:00,
2013-03-26 15:37:00,58.5,27.9,30.30,NW,315,2.5,4.0,31,0.00,,,0.00,WUHU216HW,2013-03-26 20:37:00,
2013-03-26 15:38:00,58.7,27.4,30.30,NNW,338,2.9,4.0,30,0.00,,,0.00,WUHU216HW,2013-03-26 20:38:00,
2013-03-26 15:39:00,59.0,26.7,30.30,NNW,338,1.8,4.0,29,0.00,,,0.00,WUHU216HW,2013-03-26 20:39:00,
2013-03-26 15:40:00,59.0,24.9,30.30,NW,315,2.5,4.0,27,0.00,,,0.00,WUHU216HW,2013-03-26 20:40:00,
2013-03-26 15:42:00,58.9,25.7,30.29,WSW,248,1.8,4.7,28,0.00,,,0.00,WUHU216HW,2013-03-26 20:42:00,
2013-03-26 15:43:00,59.0,26.7,30.29,West,270,1.8,4.7,29,0.00,,,0.00,WUHU216HW,2013-03-26 20:43:00,
2013-03-26 15:44:00,59.0,26.7,30.29,North,0,5.4,5.4,29,0.00,,,0.00,WUHU216HW,2013-03-26 20:44:00,
2013-03-26 15:45:00,59.4,27.0,30.29,North,0,3.4,5.4,29,0.00,,,0.00,WUHU216HW,2013-03-26 20:45:00,
2013-03-26 15:46:00,59.8,27.4,30.29,NW,315,4.9,5.4,29,0.00,,,0.00,WUHU216HW,2013-03-26 20:46:00,
2013-03-26 15:48:00,60.1,27.6,30.29,North,0,2.2,5.4,29,0.00,,,0.00,WUHU216HW,2013-03-26 20:48:00,
2013-03-26 15:49:00,60.5,28.9,30.29,North,0,1.6,5.4,30,0.00,,,0.00,WUHU216HW,2013-03-26 20:49:00,
2013-03-26 15:50:00,60.7,28.1,30.29,NNW,338,2.2,5.4,29,0.00,,,0.00,WUHU216HW,2013-03-26 20:50:00,
2013-03-26 15:51:00,60.8,27.3,30.29,NNW,338,1.8,5.4,28,0.00,,,0.00,WUHU216HW,2013-03-26 20:51:00,
2013-03-26 15:53:00,60.8,26.3,30.29,NW,315,2.5,5.4,27,0.00,,,0.00,WUHU216HW,2013-03-26 20:53:00,
2013-03-26 15:54:00,60.3,25.8,30.29,WNW,293,2.7,4.9,27,0.00,,,0.00,WUHU216HW,2013-03-26 20:54:00,
2013-03-26 15:55:00,59.9,25.6,30.29,North,0,6.0,6.0,27,0.00,,,0.00,WUHU216HW,2013-03-26 20:55:00,
2013-03-26 15:56:00,59.8,26.4,30.29,NNE,23,4.0,6.0,28,0.00,,,0.00,WUHU216HW,2013-03-26 20:56:00,
2013-03-26 15:57:00,60.1,27.6,30.29,NNE,23,4.7,6.0,29,0.00,,,0.00,WUHU216HW,2013-03-26 20:57:00,
2013-03-26 15:59:00,60.8,28.2,30.29,NW,315,2.2,9.2,29,0.00,,,0.00,WUHU216HW,2013-03-26 20:59:00,
2013-03-26 16:01:00,61.2,26.7,30.29,NW,315,3.4,9.2,27,0.00,,,0.00,WUHU216HW,2013-03-26 21:01:00,
2013-03-26 16:02:00,60.8,24.4,30.29,West,270,2.2,9.2,25,0.00,,,0.00,WUHU216HW,2013-03-26 21:02:00,
2013-03-26 16:03:00,60.7,27.1,30.28,North,0,5.6,9.2,28,0.00,,,0.00,WUHU216HW,2013-03-26 21:03:00,
2013-03-26 16:04:00,60.7,27.1,30.29,NW,315,4.3,9.2,28,0.00,,,0.00,WUHU216HW,2013-03-26 21:04:00,
2013-03-26 16:06:00,60.7,26.2,30.29,West,270,2.5,9.2,27,0.00,,,0.00,WUHU216HW,2013-03-26 21:06:00,
2013-03-26 16:07:00,60.7,26.2,30.29,NNW,338,6.9,9.2,27,0.00,,,0.00,WUHU216HW,2013-03-26 21:07:00,
2013-03-26 16:08:00,60.7,27.1,30.29,NW,315,2.5,9.2,28,0.00,,,0.00,WUHU216HW,2013-03-26 21:08:00,
2013-03-26 16:09:00,60.7,26.2,30.29,NNW,338,3.4,6.9,27,0.00,,,0.00,WUHU216HW,2013-03-26 21:09:00,
2013-03-26 16:10:00,60.7,27.1,30.29,NW,315,2.0,6.9,28,0.00,,,0.00,WUHU216HW,2013-03-26 21:10:00,
2013-03-26 16:12:00,61.2,27.5,30.28,NNW,338,0.9,6.9,28,0.00,,,0.00,WUHU216HW,2013-03-26 21:12:00,
2013-03-26 16:13:00,61.6,26.9,30.29,NNW,338,2.5,6.9,27,0.00,,,0.00,WUHU216HW,2013-03-26 21:13:00,
2013-03-26 16:14:00,61.6,26.9,30.28,North,0,1.8,6.9,27,0.00,,,0.00,WUHU216HW,2013-03-26 21:14:00,
2013-03-26 16:15:00,61.6,25.9,30.28,NNW,338,1.6,6.9,26,0.00,,,0.00,WUHU216HW,2013-03-26 21:15:00,
2013-03-26 16:17:00,61.6,26.9,30.28,NW,315,4.7,4.7,27,0.00,,,0.00,WUHU216HW,2013-03-26 21:17:00,
2013-03-26 16:18:00,61.7,25.1,30.28,North,0,2.7,4.7,25,0.00,,,0.00,WUHU216HW,2013-03-26 21:18:00,
2013-03-26 16:19:00,61.7,25.1,30.28,North,0,6.3,6.3,25,0.00,,,0.00,WUHU216HW,2013-03-26 21:19:00,
2013-03-26 16:20:00,61.9,25.3,30.28,North,0,4.7,6.3,25,0.00,,,0.00,WUHU216HW,2013-03-26 21:20:00,
2013-03-26 16:21:00,62.1,26.5,30.28,NW,315,4.9,6.3,26,0.00,,,0.00,WUHU216HW,2013-03-26 21:21:00,
2013-03-26 16:23:00,62.1,26.5,30.28,WNW,293,2.2,7.4,26,0.00,,,0.00,WUHU216HW,2013-03-26 21:23:00,
2013-03-26 16:24:00,62.3,25.7,30.28,NW,315,2.2,7.4,25,0.00,,,0.00,WUHU216HW,2013-03-26 21:24:00,
2013-03-26 16:25:00,62.5,25.7,30.28,WSW,248,3.6,7.4,25,0.00,,,0.00,WUHU216HW,2013-03-26 21:25:00,
2013-03-26 16:26:00,62.3,25.7,30.28,North,0,4.3,7.4,25,0.00,,,0.00,WUHU216HW,2013-03-26 21:26:00,
2013-03-26 16:28:00,62.6,27.9,30.28,SW,225,2.9,7.4,27,0.00,,,0.00,WUHU216HW,2013-03-26 21:28:00,
2013-03-26 16:29:00,62.6,27.9,30.28,NNW,338,4.7,7.4,27,0.00,,,0.00,WUHU216HW,2013-03-26 21:29:00,
2013-03-26 16:30:00,62.6,28.8,30.28,NNW,338,3.4,7.4,28,0.00,,,0.00,WUHU216HW,2013-03-26 21:30:00,
2013-03-26 16:32:00,63.0,28.2,30.28,NW,315,1.8,7.4,27,0.00,,,0.00,WUHU216HW,2013-03-26 21:32:00,
2013-03-26 16:33:00,63.4,29.4,30.28,North,0,5.4,5.4,28,0.00,,,0.00,WUHU216HW,2013-03-26 21:33:00,
2013-03-26 16:37:00,65.3,29.3,30.28,East,90,0.7,5.4,26,0.00,,,0.00,WUHU216HW,2013-03-26 21:37:00,
2013-03-26 16:43:00,65.2,29.1,30.27,WSW,248,0.4,5.4,26,0.00,,,0.00,WUHU216HW,2013-03-26 21:43:00,
2013-03-26 16:48:00,65.2,27.1,30.27,WSW,248,4.7,4.7,24,0.00,,,0.00,WUHU216HW,2013-03-26 21:48:00,
2013-03-26 16:53:00,62.6,25.9,30.27,WNW,293,2.9,4.7,25,0.00,,,0.00,WUHU216HW,2013-03-26 21:53:00,
2013-03-26 16:59:00,64.3,28.3,30.27,NNW,338,0.9,4.5,26,0.00,,,0.00,WUHU216HW,2013-03-26 21:59:00,
2013-03-26 17:04:00,65.5,28.4,30.26,West,270,2.5,2.5,25,0.00,,,0.00,WUHU216HW,2013-03-26 22:04:00,
2013-03-26 17:09:00,65.3,28.3,30.26,West,270,0.7,3.1,25,0.00,,,0.00,WUHU216HW,2013-03-26 22:09:00,
2013-03-26 17:14:00,64.6,28.6,30.26,NNW,338,5.6,5.6,26,0.00,,,0.00,WUHU216HW,2013-03-26 22:14:00,
2013-03-26 17:19:00,65.5,27.4,30.26,SE,135,2.9,5.6,24,0.00,,,0.00,WUHU216HW,2013-03-26 22:19:00,
2013-03-26 17:24:00,66.2,28.0,30.26,East,90,4.3,5.4,24,0.00,,,0.00,WUHU216HW,2013-03-26 22:24:00,
2013-03-26 17:29:00,65.5,27.4,30.26,NE,45,3.4,4.7,24,0.00,,,0.00,WUHU216HW,2013-03-26 22:29:00,
2013-03-26 17:34:00,64.8,28.7,30.26,North,0,0.2,4.0,26,0.00,,,0.00,WUHU216HW,2013-03-26 22:34:00,
2013-03-26 17:40:00,66.2,30.0,30.25,SE,135,2.2,4.7,26,0.00,,,0.00,WUHU216HW,2013-03-26 22:40:00,
2013-03-26 17:45:00,67.9,29.3,30.25,NW,315,1.8,4.7,24,0.00,,,0.00,WUHU216HW,2013-03-26 22:45:00,
2013-03-26 17:50:00,68.2,30.7,30.25,NNW,338,2.2,3.4,25,0.00,,,0.00,WUHU216HW,2013-03-26 22:50:00,
2013-03-26 17:55:00,67.9,28.4,30.25,East,90,3.6,3.6,23,0.00,,,0.00,WUHU216HW,2013-03-26 22:55:00,
2013-03-26 18:00:00,67.7,29.3,30.25,NNW,338,2.5,3.6,24,0.00,,,0.00,WUHU216HW,2013-03-26 23:00:00,
2013-03-26 18:06:00,67.9,28.4,30.25,ENE,68,2.5,4.0,23,0.00,,,0.00,WUHU216HW,2013-03-26 23:06:00,
2013-03-26 18:12:00,63.7,25.8,30.25,East,90,3.6,4.5,24,0.00,,,0.00,WUHU216HW,2013-03-26 23:12:00,
2013-03-26 18:17:00,61.9,27.3,30.25,ENE,68,4.0,4.5,27,0.00,,,0.00,WUHU216HW,2013-03-26 23:17:00,
2013-03-26 18:22:00,63.2,25.4,30.25,ENE,68,4.7,4.7,24,0.00,,,0.00,WUHU216HW,2013-03-26 23:22:00,
2013-03-26 18:27:00,63.4,26.6,30.25,ENE,68,2.7,4.7,25,0.00,,,0.00,WUHU216HW,2013-03-26 23:27:00,
2013-03-26 18:32:00,60.8,23.4,30.25,ENE,68,2.7,3.6,24,0.00,,,0.00,WUHU216HW,2013-03-26 23:32:00,
2013-03-26 18:37:00,58.1,24.0,30.25,ESE,113,3.8,4.5,27,0.00,,,0.00,WUHU216HW,2013-03-26 23:37:00,
2013-03-26 18:42:00,58.0,25.8,30.25,ENE,68,1.8,4.5,29,0.00,,,0.00,WUHU216HW,2013-03-26 23:42:00,
2013-03-26 18:47:00,57.2,24.2,30.25,East,90,2.9,3.6,28,0.00,,,0.00,WUHU216HW,2013-03-26 23:47:00,
2013-03-26 18:52:00,57.1,25.9,30.25,East,90,2.0,3.6,30,0.00,,,0.00,WUHU216HW,2013-03-26 23:52:00,
2013-03-26 18:57:00,57.6,25.5,30.25,ENE,68,1.6,3.4,29,0.00,,,0.00,WUHU216HW,2013-03-26 23:57:00,
2013-03-26 19:02:00,57.2,25.1,30.25,ENE,68,1.6,3.4,29,0.00,,,0.00,WUHU216HW,2013-03-27 00:02:00,
2013-03-26 19:08:00,57.2,25.1,30.25,ENE,68,1.6,2.5,29,0.00,,,0.00,WUHU216HW,2013-03-27 00:08:00,
2013-03-26 19:13:00,55.8,24.9,30.25,ENE,68,1.3,3.4,30,0.00,,,0.00,WUHU216HW,2013-03-27 00:13:00,
2013-03-26 19:18:00,55.8,24.9,30.25,ENE,68,1.1,3.4,30,0.00,,,0.00,WUHU216HW,2013-03-27 00:18:00,
2013-03-26 19:23:00,56.2,25.8,30.25,NE,45,0.4,1.8,31,0.00,,,0.00,WUHU216HW,2013-03-27 00:23:00,
2013-03-26 19:28:00,56.9,26.5,30.25,NE,45,0.9,1.8,31,0.00,,,0.00,WUHU216HW,2013-03-27 00:28:00,
2013-03-26 19:33:00,56.5,26.2,30.25,NNE,23,0.0,0.9,31,0.00,,,0.00,WUHU216HW,2013-03-27 00:33:00,
2013-03-26 19:38:00,55.8,25.5,30.25,NNE,23,0.4,0.7,31,0.00,,,0.00,WUHU216HW,2013-03-27 00:38:00,
2013-03-26 19:43:00,54.4,25.0,30.25,NNE,23,0.0,0.4,32,0.00,,,0.00,WUHU216HW,2013-03-27 00:43:00,
2013-03-26 19:49:00,52.7,24.3,30.25,NNE,23,0.0,0.0,33,0.00,,,0.00,WUHU216HW,2013-03-27 00:49:00,
2013-03-26 19:55:00,51.3,25.8,30.25,NE,45,0.0,0.0,37,0.00,,,0.00,WUHU216HW,2013-03-27 00:55:00,
2013-03-26 20:00:00,50.0,25.3,30.25,ENE,68,0.0,0.0,38,0.00,,,0.00,WUHU216HW,2013-03-27 01:00:00,
2013-03-26 20:05:00,49.3,24.7,30.25,ENE,68,0.0,0.0,38,0.00,,,0.00,WUHU216HW,2013-03-27 01:05:00,
2013-03-26 20:10:00,49.1,26.9,30.25,SE,135,1.6,1.6,42,0.00,,,0.00,WUHU216HW,2013-03-27 01:10:00,
2013-03-26 20:16:00,47.7,24.6,30.25,SSE,158,0.0,1.6,40,0.00,,,0.00,WUHU216HW,2013-03-27 01:16:00,
2013-03-26 20:21:00,47.2,24.6,30.25,SSE,158,0.0,0.0,41,0.00,,,0.00,WUHU216HW,2013-03-27 01:21:00,
2013-03-26 20:27:00,46.8,23.8,30.25,SSE,158,0.0,0.0,40,0.00,,,0.00,WUHU216HW,2013-03-27 01:27:00,
2013-03-26 20:32:00,47.0,24.9,30.25,SSE,158,0.0,0.0,42,0.00,,,0.00,WUHU216HW,2013-03-27 01:32:00,
2013-03-26 20:37:00,47.2,25.7,30.25,South,180,0.0,0.0,43,0.00,,,0.00,WUHU216HW,2013-03-27 01:37:00,
2013-03-26 20:42:00,46.8,25.9,30.25,South,180,0.0,0.0,44,0.00,,,0.00,WUHU216HW,2013-03-27 01:42:00,
2013-03-26 20:47:00,46.3,25.9,30.25,South,180,0.7,0.7,45,0.00,,,0.00,WUHU216HW,2013-03-27 01:47:00,
2013-03-26 20:52:00,44.3,26.3,30.25,SSW,203,0.0,0.7,49,0.00,,,0.00,WUHU216HW,2013-03-27 01:52:00,
2013-03-26 20:58:00,43.7,25.3,30.26,SSW,203,0.0,0.4,48,0.00,,,0.00,WUHU216HW,2013-03-27 01:58:00,
2013-03-26 21:03:00,43.6,25.1,30.25,SSW,203,0.0,0.0,48,0.00,,,0.00,WUHU216HW,2013-03-27 02:03:00,
2013-03-26 21:08:00,43.4,26.0,30.25,WNW,293,0.0,0.0,50,0.00,,,0.00,WUHU216HW,2013-03-27 02:08:00,
2013-03-26 21:13:00,43.0,25.8,30.25,NNW,338,0.0,0.7,50,0.00,,,0.00,WUHU216HW,2013-03-27 02:13:00,
2013-03-26 21:18:00,42.8,26.0,30.25,NNW,338,0.0,0.7,51,0.00,,,0.00,WUHU216HW,2013-03-27 02:18:00,
2013-03-26 21:23:00,42.5,25.7,30.25,NNW,338,0.0,0.0,51,0.00,,,0.00,WUHU216HW,2013-03-27 02:23:00,
2013-03-26 21:28:00,41.9,25.1,30.25,NNW,338,0.0,0.0,51,0.00,,,0.00,WUHU216HW,2013-03-27 02:28:00,
2013-03-26 21:33:00,41.8,25.4,30.25,NNW,338,0.0,0.0,52,0.00,,,0.00,WUHU216HW,2013-03-27 02:33:00,
2013-03-26 21:38:00,41.6,25.2,30.25,NNW,338,0.0,0.0,52,0.00,,,0.00,WUHU216HW,2013-03-27 02:38:00,
2013-03-26 21:43:00,41.2,25.3,30.25,NNW,338,0.0,0.0,53,0.00,,,0.00,WUHU216HW,2013-03-27 02:43:00,
2013-03-26 21:48:00,40.9,25.4,30.25,NNW,338,0.0,0.0,54,0.00,,,0.00,WUHU216HW,2013-03-27 02:48:00,
2013-03-26 21:53:00,40.5,25.5,30.25,NNE,23,0.0,1.8,55,0.00,,,0.00,WUHU216HW,2013-03-27 02:53:00,
2013-03-26 21:58:00,39.8,26.6,30.25,NNW,338,0.0,1.8,59,0.00,,,0.00,WUHU216HW,2013-03-27 02:58:00,
2013-03-26 22:03:00,39.6,27.5,30.26,NNW,338,0.0,0.4,62,0.00,,,0.00,WUHU216HW,2013-03-27 03:03:00,
2013-03-26 22:08:00,39.2,26.8,30.25,NNW,338,0.0,0.0,61,0.00,,,0.00,WUHU216HW,2013-03-27 03:08:00,
2013-03-26 22:13:00,39.1,26.6,30.25,NNW,338,0.0,0.0,61,0.00,,,0.00,WUHU216HW,2013-03-27 03:13:00,
2013-03-26 22:18:00,38.5,26.2,30.26,NNW,338,0.0,0.0,61,0.00,,,0.00,WUHU216HW,2013-03-27 03:18:00,
2013-03-26 22:23:00,38.2,27.7,30.26,West,270,0.9,0.9,66,0.00,,,0.00,WUHU216HW,2013-03-27 03:23:00,
2013-03-26 22:28:00,37.4,27.1,30.26,West,270,0.4,0.9,66,0.00,,,0.00,WUHU216HW,2013-03-27 03:28:00,
2013-03-26 22:34:00,37.3,26.6,30.26,West,270,0.0,0.7,65,0.00,,,0.00,WUHU216HW,2013-03-27 03:34:00,
2013-03-26 22:39:00,37.3,27.3,30.26,West,270,0.0,0.0,67,0.00,,,0.00,WUHU216HW,2013-03-27 03:39:00,
2013-03-26 22:44:00,37.1,26.7,30.26,NNW,338,0.0,0.4,66,0.00,,,0.00,WUHU216HW,2013-03-27 03:44:00,
2013-03-26 22:49:00,37.1,26.7,30.26,NNW,338,0.0,0.4,66,0.00,,,0.00,WUHU216HW,2013-03-27 03:49:00,
2013-03-26 22:54:00,37.1,26.7,30.26,NNW,338,0.0,0.0,66,0.00,,,0.00,WUHU216HW,2013-03-27 03:54:00,
2013-03-26 22:59:00,36.9,26.2,30.27,NNW,338,0.0,0.0,65,0.00,,,0.00,WUHU216HW,2013-03-27 03:59:00,
2013-03-26 23:00:00,36.7,26.0,30.27,NNW,338,0.0,0.0,65,0.00,,,0.00,WUHU216HW,2013-03-27 04:00:00,
2013-03-26 23:01:00,36.7,26.0,30.26,NNW,338,0.0,0.0,65,0.00,,,0.00,WUHU216HW,2013-03-27 04:01:00,
2013-03-26 23:06:00,36.7,26.0,30.26,NNW,338,0.0,0.0,65,0.00,,,0.00,WUHU216HW,2013-03-27 04:06:00,
2013-03-26 23:11:00,36.7,26.0,30.26,NNW,338,0.0,0.0,65,0.00,,,0.00,WUHU216HW,2013-03-27 04:11:00,
2013-03-26 23:16:00,36.7,26.0,30.26,NNW,338,0.0,0.2,65,0.00,,,0.00,WUHU216HW,2013-03-27 04:16:00,
2013-03-26 23:21:00,36.2,27.4,30.27,SW,225,0.4,0.9,70,0.00,,,0.00,WUHU216HW,2013-03-27 04:21:00,
2013-03-26 23:26:00,35.6,25.7,30.26,SW,225,0.0,0.9,67,0.00,,,0.00,WUHU216HW,2013-03-27 04:26:00,
2013-03-26 23:31:00,35.6,26.5,30.27,West,270,0.0,0.4,69,0.00,,,0.00,WUHU216HW,2013-03-27 04:31:00,
2013-03-26 23:36:00,35.5,26.3,30.27,West,270,0.0,0.0,69,0.00,,,0.00,WUHU216HW,2013-03-27 04:36:00,
2013-03-26 23:41:00,35.3,26.8,30.27,West,270,0.0,0.0,71,0.00,,,0.00,WUHU216HW,2013-03-27 04:41:00,
2013-03-26 23:47:00,34.9,27.1,30.26,WNW,293,0.2,0.4,73,0.00,,,0.00,WUHU216HW,2013-03-27 04:47:00,
2013-03-26 23:52:00,34.9,27.1,30.27,WNW,293,0.0,0.4,73,0.00,,,0.00,WUHU216HW,2013-03-27 04:52:00,
2013-03-26 23:57:00,34.7,26.9,30.27,WNW,293,0.0,0.0,73,0.00,,,0.00,WUHU216HW,2013-03-27 04:57:00,